Time;durP1;ratioP1;P1;durP2;ratioP2;P2;SDS_P1;SDS_P2;PMS_P1;PMS_P2;Temp;Humidity;BMP_temperature;BMP_pressure;BME280_temperature;BME280_humidity;BME280_pressure;Samples;Min_cycle;Max_cycle;Signal;HPM_P1;HPM_P2
2022/06/28 00:01:12;;;;;;;7.93;1.88;;;;;;;13.76;100.00;102042.94;4992396;28;20081;-69
2022/06/28 00:03:37;;;;;;;8.90;2.40;;;;;;;13.72;100.00;102042.19;4993893;28;20387;-69
2022/06/28 00:06:03;;;;;;;7.68;1.65;;;;;;;13.70;100.00;102045.84;4993766;28;20034;-69
2022/06/28 00:08:28;;;;;;;6.10;1.70;;;;;;;13.70;100.00;102043.16;4993074;28;20461;-68
2022/06/28 00:10:53;;;;;;;5.28;1.75;;;;;;;13.69;100.00;102044.09;4993459;28;20084;-69
2022/06/28 00:13:19;;;;;;;4.68;1.52;;;;;;;13.68;100.00;102039.69;4992583;28;20030;-70
2022/06/28 00:18:28;;;;;;;8.00;1.88;;;;;;;13.65;100.00;102039.81;4992554;28;20556;-70
2022/06/28 00:20:53;;;;;;;7.60;1.80;;;;;;;13.63;100.00;102031.88;4993186;28;20057;-69
2022/06/28 00:23:19;;;;;;;7.97;1.75;;;;;;;13.62;100.00;102042.56;4993611;28;20034;-69
2022/06/28 00:25:44;;;;;;;6.95;1.60;;;;;;;13.57;100.00;102040.97;5008688;28;20117;-70
2022/06/28 00:28:10;;;;;;;7.85;1.88;;;;;;;13.50;100.00;102027.97;4992197;28;20409;-69
2022/06/28 00:30:35;;;;;;;8.05;1.80;;;;;;;13.48;100.00;102030.69;4993111;28;20026;-70
2022/06/28 00:33:00;;;;;;;8.95;1.77;;;;;;;13.49;100.00;102029.75;4991995;28;20110;-70
2022/06/28 00:35:26;;;;;;;9.20;1.73;;;;;;;13.47;100.00;102036.94;4992151;28;20393;-70
2022/06/28 00:37:51;;;;;;;8.35;1.95;;;;;;;13.46;100.00;102029.00;4991872;28;20045;-70
2022/06/28 00:40:17;;;;;;;7.45;1.60;;;;;;;13.41;100.00;102046.03;4993049;28;20132;-69
2022/06/28 00:42:42;;;;;;;7.95;1.88;;;;;;;13.40;100.00;102041.63;4993099;28;20034;-70
2022/06/28 00:45:08;;;;;;;6.15;1.73;;;;;;;13.38;100.00;102045.25;4991850;28;20504;-70
2022/06/28 00:47:34;;;;;;;4.85;1.42;;;;;;;13.36;100.00;102034.66;4993111;28;20034;-69
2022/06/28 00:49:59;;;;;;;5.70;1.80;;;;;;;13.36;100.00;102039.09;4992708;28;20045;-69
2022/06/28 00:52:25;;;;;;;3.22;1.40;;;;;;;13.32;100.00;102035.66;4992993;28;20512;-69
2022/06/28 00:54:51;;;;;;;7.68;1.60;;;;;;;13.31;100.00;102044.56;4991747;28;20482;-68
2022/06/28 00:57:16;;;;;;;9.85;1.67;;;;;;;13.33;100.00;102050.72;4993075;28;20065;-70
2022/06/28 00:59:42;;;;;;;7.65;1.90;;;;;;;13.33;100.00;102049.84;4992365;28;20039;-68
2022/06/28 01:02:07;;;;;;;9.70;1.98;;;;;;;13.31;100.00;102049.03;4992535;28;20108;-68
2022/06/28 01:04:33;;;;;;;4.72;1.33;;;;;;;13.30;100.00;102050.84;4992881;28;20030;-69
2022/06/28 01:06:58;;;;;;;7.55;1.17;;;;;;;13.28;100.00;102045.53;4992662;28;20054;-69
2022/06/28 01:09:24;;;;;;;5.18;1.38;;;;;;;13.26;100.00;102057.16;4992541;28;20030;-70
2022/06/28 01:11:49;;;;;;;6.07;1.38;;;;;;;13.24;100.00;102051.91;4992634;28;20038;-70
2022/06/28 01:14:15;;;;;;;5.50;1.30;;;;;;;13.22;100.00;102052.88;4975397;28;20080;-69
2022/06/28 01:16:40;;;;;;;6.15;1.67;;;;;;;13.22;100.00;102052.88;4992623;28;20064;-70
2022/06/28 01:19:07;;;;;;;9.65;1.35;;;;;;;13.19;100.00;102050.34;4992498;28;20034;-69
2022/06/28 01:21:34;;;;;;;6.05;1.48;;;;;;;13.17;100.00;102045.09;4992613;28;20035;-68
2022/06/28 01:24:00;;;;;;;4.60;1.45;;;;;;;13.16;100.00;102054.00;4992900;28;20022;-69
2022/06/28 01:26:25;;;;;;;4.43;1.33;;;;;;;13.14;100.00;102055.84;4991609;28;20504;-69
2022/06/28 01:28:52;;;;;;;5.15;1.50;;;;;;;13.11;100.00;102054.16;4991297;28;20030;-69
2022/06/28 01:31:19;;;;;;;7.97;1.83;;;;;;;13.08;100.00;102056.94;4992205;28;20099;-69
2022/06/28 01:33:44;;;;;;;4.65;1.20;;;;;;;13.06;100.00;102057.91;4991404;28;20113;-68
2022/06/28 01:36:10;;;;;;;7.00;1.80;;;;;;;13.03;100.00;102052.69;4992462;28;20070;-69
2022/06/28 01:38:38;;;;;;;4.20;1.50;;;;;;;13.01;100.00;102055.41;4992346;28;20031;-70
2022/06/28 01:41:04;;;;;;;6.95;1.45;;;;;;;12.99;100.00;102056.38;4992152;28;20058;-69
2022/06/28 01:43:32;;;;;;;6.38;1.80;;;;;;;12.98;100.00;102057.31;4975083;28;20062;-70
2022/06/28 01:45:58;;;;;;;4.07;1.55;;;;;;;12.92;100.00;102053.94;4992241;28;20034;-70
2022/06/28 01:48:24;;;;;;;9.45;1.92;;;;;;;12.89;100.00;102058.50;4992565;28;20462;-70
2022/06/28 01:50:52;;;;;;;5.90;1.65;;;;;;;12.88;100.00;102059.44;4990971;28;20035;-69
2022/06/28 01:53:17;;;;;;;4.57;1.88;;;;;;;12.88;100.00;102059.44;5007303;28;20062;-70
2022/06/28 01:55:43;;;;;;;6.05;1.80;;;;;;;12.85;100.00;102055.09;4992494;28;20068;-69
2022/06/28 01:58:09;;;;;;;5.68;2.05;;;;;;;12.80;100.00;102059.72;4992146;28;20483;-69
2022/06/28 02:00:35;;;;;;;7.55;1.73;;;;;;;12.76;100.00;102069.56;4992254;28;20056;-70
2022/06/28 02:03:01;;;;;;;11.57;2.30;;;;;;;12.73;100.00;102071.47;4992069;28;20023;-69
2022/06/28 02:05:28;;;;;;;9.60;2.00;;;;;;;12.68;100.00;102063.63;4991063;28;20527;-69
2022/06/28 02:07:54;;;;;;;8.15;2.13;;;;;;;12.70;100.00;102066.22;4991127;28;20150;-70
2022/06/28 02:10:21;;;;;;;12.38;1.85;;;;;;;12.72;100.00;102070.56;4992011;28;20085;-69
2022/06/28 02:12:47;;;;;;;9.32;2.22;;;;;;;12.70;100.00;102069.78;4990969;28;20035;-69
2022/06/28 02:15:13;;;;;;;5.93;1.90;;;;;;;12.71;100.00;102067.97;4974908;28;20038;-69
2022/06/28 02:17:39;;;;;;;6.43;1.60;;;;;;;12.70;100.00;102069.78;5007091;28;20022;-69
2022/06/28 02:20:05;;;;;;;7.65;2.05;;;;;;;12.66;100.00;102073.47;4991856;28;20038;-70
2022/06/28 02:22:30;;;;;;;7.93;2.33;;;;;;;12.64;100.00;102077.09;4991980;28;20106;-69
2022/06/28 02:24:56;;;;;;;7.93;1.85;;;;;;;12.61;100.00;102078.06;4990634;28;20023;-69
2022/06/28 02:27:21;;;;;;;10.55;2.00;;;;;;;12.57;100.00;102077.28;4990737;28;20030;-68
2022/06/28 02:29:47;;;;;;;9.18;2.00;;;;;;;12.54;100.00;102073.88;4992151;28;20030;-69
2022/06/28 02:32:12;;;;;;;5.35;1.83;;;;;;;12.51;100.00;102085.47;4992019;28;20034;-68
2022/06/28 02:40:21;;;;;;;5.75;1.80;;;;;;;12.45;100.00;102072.38;4995457;28;20410;-69
2022/06/28 02:42:56;;;;;;;7.20;1.98;;;;;;;12.45;100.00;102078.56;5010540;28;20109;-69
2022/06/28 02:45:24;;;;;;;5.85;2.10;;;;;;;12.43;100.00;102071.56;4994451;28;20038;-68
2022/06/28 02:47:49;;;;;;;13.93;3.00;;;;;;;12.42;100.00;102073.34;4995376;28;20024;-70
2022/06/28 02:50:15;;;;;;;5.95;1.83;;;;;;;12.40;100.00;102082.28;4995155;28;20037;-69
2022/06/28 02:52:41;;;;;;;5.72;1.55;;;;;;;12.37;100.00;102085.06;4993896;28;20489;-69
2022/06/28 02:55:08;;;;;;;5.30;1.83;;;;;;;12.35;100.00;102085.09;4995096;28;20029;-69
2022/06/28 02:57:34;;;;;;;8.77;2.47;;;;;;;12.35;100.00;102095.69;4995150;28;20026;-70
2022/06/28 03:00:00;;;;;;;9.70;2.00;;;;;;;12.33;100.00;102089.59;4994766;28;20482;-69
2022/06/28 03:02:26;;;;;;;5.93;1.70;;;;;;;12.32;100.00;102089.66;4994932;28;20113;-69
2022/06/28 03:04:51;;;;;;;4.72;1.73;;;;;;;12.30;100.00;102081.69;4994926;28;20073;-69
2022/06/28 03:07:17;;;;;;;6.53;1.85;;;;;;;12.29;100.00;102088.81;4992698;28;20034;-70
2022/06/28 03:09:42;;;;;;;6.15;1.75;;;;;;;12.29;100.00;102088.81;4994155;28;20502;-69
2022/06/28 03:12:08;;;;;;;7.57;1.67;;;;;;;12.28;100.00;102094.19;4994580;28;20097;-69
2022/06/28 03:14:33;;;;;;;6.60;1.95;;;;;;;12.31;100.00;102101.19;4994820;28;20027;-70
2022/06/28 03:16:59;;;;;;;8.60;1.90;;;;;;;12.29;100.00;102106.56;4994728;28;20049;-69
2022/06/28 03:19:25;;;;;;;10.43;2.08;;;;;;;12.32;100.00;102100.28;4994675;28;20034;-69
2022/06/28 03:21:50;;;;;;;10.32;2.45;;;;;;;12.32;100.00;102108.25;4994428;28;20034;-69
2022/06/28 03:24:16;;;;;;;9.93;2.13;;;;;;;12.32;100.00;102110.91;4994635;28;20030;-69
2022/06/28 03:26:42;;;;;;;9.85;2.22;;;;;;;12.33;100.00;102110.84;4994607;28;20066;-69
2022/06/28 03:29:07;;;;;;;7.38;1.83;;;;;;;12.34;100.00;102117.91;4994502;28;20041;-70
2022/06/28 03:31:33;;;;;;;3.95;1.50;;;;;;;12.36;100.00;102117.84;4994280;28;20034;-69
2022/06/28 03:33:59;;;;;;;8.32;1.98;;;;;;;12.39;100.00;102123.03;4994194;28;20110;-70
2022/06/28 03:36:24;;;;;;;6.90;1.90;;;;;;;12.38;100.00;102126.63;4994458;28;20022;-70
2022/06/28 03:38:50;;;;;;;5.25;1.80;;;;;;;12.41;100.00;102127.38;4994319;28;20185;-69
2022/06/28 03:41:22;;;;;;;6.88;2.15;;;;;;;12.43;100.00;102130.03;4994087;28;20026;-69
2022/06/28 03:43:52;;;;;;;8.32;2.30;;;;;;;12.45;100.00;102126.41;4993267;28;20478;-69
2022/06/28 03:46:18;;;;;;;12.23;2.40;;;;;;;12.48;100.00;102125.44;4994171;28;20034;-69
2022/06/28 03:48:44;;;;;;;10.68;2.53;;;;;;;12.50;100.00;102126.22;4994304;28;20038;-70
2022/06/28 03:51:10;;;;;;;9.90;2.03;;;;;;;12.54;100.00;102127.88;4993816;28;20033;-70
2022/06/28 03:53:35;;;;;;;9.90;2.22;;;;;;;12.56;100.00;102136.66;4994080;28;20030;-69
2022/06/28 03:56:01;;;;;;;10.05;2.30;;;;;;;12.58;100.00;102140.16;4993939;28;20046;-69
2022/06/28 03:58:26;;;;;;;11.02;2.13;;;;;;;12.62;100.00;102133.81;4992831;28;20148;-69
2022/06/28 04:00:52;;;;;;;7.78;2.10;;;;;;;12.65;100.00;102137.28;5008550;28;20061;-69
2022/06/28 04:03:18;;;;;;;6.70;1.80;;;;;;;12.65;100.00;102148.78;4992343;28;20039;-69
2022/06/28 04:05:44;;;;;;;9.35;2.58;;;;;;;12.68;100.00;102145.16;4994075;28;20042;-69
2022/06/28 04:08:09;;;;;;;10.60;2.75;;;;;;;12.68;100.00;102147.81;4992788;28;20375;-69
2022/06/28 04:10:35;;;;;;;6.65;2.00;;;;;;;12.72;100.00;102149.44;4993612;28;20077;-69
2022/06/28 04:13:00;;;;;;;8.20;2.45;;;;;;;12.74;100.00;102151.13;4993322;28;20034;-69
2022/06/28 04:15:26;;;;;;;10.82;2.50;;;;;;;12.78;100.00;102146.59;4992407;28;20053;-69
2022/06/28 04:17:51;;;;;;;9.77;2.53;;;;;;;12.83;100.00;102149.13;4993393;28;20430;-71
2022/06/28 04:20:17;;;;;;;8.35;1.95;;;;;;;12.89;100.00;102151.53;4993365;28;20030;-70
2022/06/28 04:22:42;;;;;;;8.13;2.47;;;;;;;12.96;100.00;102153.09;4976276;28;20029;-69
2022/06/28 04:25:08;;;;;;;9.93;2.30;;;;;;;13.01;100.00;102156.44;4992049;28;20045;-69
2022/06/28 04:27:33;;;;;;;11.07;3.28;;;;;;;13.08;100.00;102159.75;4993397;28;20037;-70
2022/06/28 04:29:59;;;;;;;10.85;2.40;;;;;;;13.10;100.00;102153.47;4992151;28;20114;-69
2022/06/28 04:32:25;;;;;;;13.63;2.85;;;;;;;13.18;100.00;102149.69;4991937;28;20033;-69
2022/06/28 04:34:50;;;;;;;8.65;2.70;;;;;;;13.22;100.00;102151.31;5008297;28;20621;-70
2022/06/28 04:37:16;;;;;;;9.13;2.60;;;;;;;13.31;100.00;102152.78;4993411;28;20061;-69
2022/06/28 04:39:41;;;;;;;9.38;2.60;;;;;;;13.33;100.00;102146.47;4993086;28;20029;-70
2022/06/28 04:42:07;;;;;;;11.13;2.67;;;;;;;13.38;100.00;102147.22;4992710;28;20038;-69
2022/06/28 04:44:33;;;;;;;10.98;2.60;;;;;;;13.47;100.00;102139.84;4991950;28;20034;-69
2022/06/28 04:46:59;;;;;;;9.48;2.70;;;;;;;13.47;100.00;102143.38;4991755;28;20038;-69
2022/06/28 04:49:25;;;;;;;8.60;3.17;;;;;;;13.53;100.00;102145.81;4991545;28;20389;-69
2022/06/28 04:51:50;;;;;;;10.85;2.30;;;;;;;13.57;100.00;102147.44;4991521;28;20129;-68
2022/06/28 04:54:15;;;;;;;9.38;2.70;;;;;;;13.59;100.00;102152.69;4992722;28;20030;-69
2022/06/28 04:56:41;;;;;;;9.45;2.58;;;;;;;13.64;100.00;102144.53;4992952;28;20034;-70
2022/06/28 04:59:06;;;;;;;10.48;2.70;;;;;;;13.68;100.00;102155.03;4992909;28;20050;-70
2022/06/28 05:01:31;;;;;;;13.20;3.60;;;;;;;13.73;100.00;102154.84;4991064;28;20042;-69
2022/06/28 05:03:57;;;;;;;8.85;3.30;;;;;;;13.79;100.00;102151.09;5007830;28;20092;-70
2022/06/28 05:06:22;;;;;;;10.45;2.85;;;;;;;13.81;100.00;102162.53;4992621;28;20038;-68
2022/06/28 05:08:47;;;;;;;10.95;2.63;;;;;;;13.84;100.00;102147.31;4991502;28;20026;-69
2022/06/28 05:11:13;;;;;;;8.75;2.67;;;;;;;13.89;100.00;102152.50;4991559;28;20041;-70
2022/06/28 05:13:38;;;;;;;10.40;2.60;;;;;;;13.94;100.00;102161.19;4992479;28;20034;-70
2022/06/28 05:16:04;;;;;;;11.55;2.53;;;;;;;13.96;100.00;102147.78;4992225;28;20026;-71
2022/06/28 05:18:29;;;;;;;9.77;3.15;;;;;;;14.03;100.00;102151.97;4992732;28;20033;-69
2022/06/28 05:20:55;;;;;;;11.52;2.67;;;;;;;14.05;100.00;102147.44;4992582;28;20469;-70
2022/06/28 05:23:20;;;;;;;17.15;2.83;;;;;;;14.05;100.00;102143.00;4991839;28;20045;-70
2022/06/28 05:25:45;;;;;;;15.77;3.25;;;;;;;14.07;100.00;102153.59;4990755;28;20030;-70
2022/06/28 05:28:11;;;;;;;13.70;2.80;;;;;;;14.11;100.00;102155.19;4991882;28;20031;-70
2022/06/28 05:30:36;;;;;;;13.38;3.22;;;;;;;14.14;100.00;102143.56;4990700;28;20759;-69
2022/06/28 05:33:03;;;;;;;16.02;3.53;;;;;;;14.20;100.00;102145.97;4990747;28;20394;-69
2022/06/28 05:35:29;;;;;;;10.30;2.88;;;;;;;14.27;100.00;102150.13;4992145;28;20077;-70
2022/06/28 05:37:55;;;;;;;11.30;2.83;;;;;;;14.32;100.00;102150.84;4991238;28;20482;-70
2022/06/28 05:40:21;;;;;;;10.25;3.08;;;;;;;14.38;100.00;102155.03;4991833;28;20038;-70
2022/06/28 05:42:46;;;;;;;11.75;3.30;;;;;;;14.46;100.00;102152.91;4990953;28;20022;-70
2022/06/28 05:45:12;;;;;;;11.10;3.30;;;;;;;14.52;100.00;102154.50;4991951;28;20117;-69
2022/06/28 05:47:37;;;;;;;12.30;2.97;;;;;;;14.56;100.00;102153.41;4991092;28;20034;-70
2022/06/28 05:50:03;;;;;;;14.13;3.00;;;;;;;14.66;100.00;102149.47;4990759;28;20038;-69
2022/06/28 05:52:29;;;;;;;11.57;3.15;;;;;;;14.68;100.00;102147.63;4990617;28;20029;-69
2022/06/28 05:54:54;;;;;;;12.65;3.13;;;;;;;14.72;100.00;102145.72;4990810;28;20034;-69
2022/06/28 05:57:19;;;;;;;12.35;3.08;;;;;;;14.74;100.00;102146.50;4990913;28;20030;-68
2022/06/28 05:59:45;;;;;;;12.50;3.25;;;;;;;14.78;100.00;102148.09;4991045;28;20039;-69
2022/06/28 06:02:10;;;;;;;13.75;3.20;;;;;;;14.77;100.00;102143.72;4991431;28;20189;-69
2022/06/28 06:04:35;;;;;;;12.98;3.30;;;;;;;14.84;100.00;102145.19;4990673;28;20043;-69
2022/06/28 06:07:01;;;;;;;14.48;3.28;;;;;;;14.87;100.00;102142.41;4993246;28;20038;-69
2022/06/28 06:09:26;;;;;;;11.65;2.90;;;;;;;14.95;100.00;102146.53;4995727;28;20532;-69
2022/06/28 06:11:51;;;;;;;12.88;3.08;;;;;;;15.02;100.00;102140.84;4995913;28;20030;-70
2022/06/28 06:14:17;;;;;;;14.50;3.90;;;;;;;15.04;100.00;102154.16;4995723;28;20061;-69
2022/06/28 06:16:43;;;;;;;11.10;3.08;;;;;;;15.06;100.00;102158.50;4994587;28;20085;-69
2022/06/28 06:19:09;;;;;;;15.55;3.50;;;;;;;15.11;100.00;102152.09;4994627;28;20027;-70
2022/06/28 06:21:34;;;;;;;15.30;3.63;;;;;;;15.21;100.00;102143.59;4994428;28;20282;-69
2022/06/28 06:24:00;;;;;;;16.48;4.28;;;;;;;15.27;100.00;102150.50;4994168;28;20492;-70
2022/06/28 06:26:25;;;;;;;10.27;2.70;;;;;;;15.35;100.00;102145.66;4995476;28;20045;-70
2022/06/28 06:28:51;;;;;;;14.02;3.10;;;;;;;15.44;100.00;102155.06;4995525;28;20030;-70
2022/06/28 06:31:16;;;;;;;11.77;3.25;;;;;;;15.47;100.00;102148.72;4995449;28;20549;-69
2022/06/28 06:33:41;;;;;;;16.30;3.50;;;;;;;15.51;100.00;102144.97;4995303;28;20030;-69
2022/06/28 06:36:07;;;;;;;11.10;2.92;;;;;;;15.52;100.00;102152.06;4993922;28;20068;-69
2022/06/28 06:38:32;;;;;;;17.55;3.30;;;;;;;15.62;100.00;102161.41;4994308;28;20033;-70
2022/06/28 06:40:59;;;;;;;15.73;3.53;;;;;;;15.66;100.00;102146.97;4995186;28;20030;-69
2022/06/28 06:43:26;;;;;;;12.82;3.63;;;;;;;15.88;100.00;102152.25;4995160;28;20030;-69
2022/06/28 06:45:52;;;;;;;17.60;2.90;;;;;;;16.12;100.00;102145.81;4995173;28;20030;-69
2022/06/28 06:48:17;;;;;;;9.60;2.60;;;;;;;16.35;100.00;102158.91;4993963;28;20034;-69
2022/06/28 06:50:43;;;;;;;18.70;3.53;;;;;;;16.38;100.00;102148.09;4995322;28;20045;-69
2022/06/28 06:53:10;;;;;;;17.50;3.00;;;;;;;16.31;100.00;102145.81;4993712;28;20030;-71
2022/06/28 06:55:36;;;;;;;19.70;2.97;;;;;;;16.17;100.00;102160.66;4993801;28;20478;-70
2022/06/28 06:58:01;;;;;;;15.30;3.08;;;;;;;16.29;100.00;102161.03;4993758;28;20065;-70
2022/06/28 07:00:27;;;;;;;12.18;2.83;;;;;;;16.32;100.00;102160.91;4995264;28;20065;-70
2022/06/28 07:02:52;;;;;;;13.88;3.00;;;;;;;16.38;100.00;102155.22;4994729;28;20061;-70
2022/06/28 07:05:17;;;;;;;16.13;3.33;;;;;;;16.49;100.00;102157.41;4993173;28;20073;-70
2022/06/28 07:07:44;;;;;;;14.85;3.38;;;;;;;16.73;100.00;102149.97;4995016;28;20030;-69
2022/06/28 07:10:09;;;;;;;11.30;2.63;;;;;;;16.83;100.00;102151.25;4994976;28;20034;-70
2022/06/28 07:12:34;;;;;;;10.18;3.03;;;;;;;16.98;100.00;102146.09;4994834;28;20034;-70
2022/06/28 07:15:00;;;;;;;19.42;3.13;;;;;;;17.01;100.00;102159.31;5008917;28;20034;-70
2022/06/28 07:17:25;;;;;;;11.98;3.03;;;;;;;17.14;100.00;102159.56;4994249;28;20034;-70
2022/06/28 07:19:51;;;;;;;14.60;3.15;;;;;;;17.17;100.00;102152.25;4994613;28;20054;-70
2022/06/28 07:22:16;;;;;;;10.30;2.72;;;;;;;17.31;100.00;102154.16;4994666;28;20116;-71
2022/06/28 07:24:41;;;;;;;14.23;3.03;;;;;;;17.26;99.58;102161.56;4994403;28;20038;-69
2022/06/28 07:27:07;;;;;;;12.43;3.55;;;;;;;17.14;99.61;102157.72;4994198;28;20172;-70
2022/06/28 07:29:32;;;;;;;11.23;3.28;;;;;;;17.18;98.65;102159.31;4994477;28;20041;-69
2022/06/28 07:31:57;;;;;;;10.20;2.83;;;;;;;17.27;98.25;102154.44;4994490;28;20386;-70
2022/06/28 07:34:23;;;;;;;13.10;3.22;;;;;;;17.36;98.48;102154.78;4994265;28;20398;-69
2022/06/28 07:36:49;;;;;;;9.82;2.92;;;;;;;17.45;97.17;102155.28;4992894;28;20331;-69
2022/06/28 07:39:15;;;;;;;10.40;2.60;;;;;;;17.54;97.37;102162.81;4994482;28;20037;-69
2022/06/28 07:41:40;;;;;;;12.02;2.75;;;;;;;17.64;95.31;102164.03;4994246;28;20026;-69
2022/06/28 07:44:06;;;;;;;14.57;3.13;;;;;;;17.62;95.73;102167.75;4993801;28;20575;-69
2022/06/28 07:46:31;;;;;;;9.38;2.40;;;;;;;17.90;92.25;102158.22;4994205;28;20041;-70
2022/06/28 07:48:56;;;;;;;10.52;2.83;;;;;;;18.18;91.35;102160.28;5008131;28;20034;-69
2022/06/28 07:54:06;;;;;;;17.10;3.60;;;;;;;18.40;89.02;102162.63;4993297;28;20045;-70
2022/06/28 07:56:32;;;;;;;13.05;2.85;;;;;;;18.48;85.90;102157.66;4993622;28;20034;-69
2022/06/28 07:58:57;;;;;;;11.32;2.75;;;;;;;18.44;82.97;102166.84;4993837;28;20034;-69
2022/06/28 08:01:22;;;;;;;15.93;3.30;;;;;;;18.27;87.67;102161.56;4992441;28;20089;-70
2022/06/28 08:03:48;;;;;;;12.82;3.38;;;;;;;18.61;86.23;102163.19;4993887;28;20108;-69
2022/06/28 08:06:13;;;;;;;12.85;3.20;;;;;;;18.78;88.10;102158.66;4993623;28;20429;-70
2022/06/28 08:08:39;;;;;;;13.38;3.00;;;;;;;18.90;88.46;102155.28;4992301;28;20058;-69
2022/06/28 08:11:04;;;;;;;11.73;2.83;;;;;;;18.66;83.53;102163.78;4992112;28;20034;-70
2022/06/28 08:13:29;;;;;;;14.23;3.00;;;;;;;18.54;83.38;102163.63;4993692;28;20034;-70
2022/06/28 08:15:55;;;;;;;11.82;2.80;;;;;;;18.60;84.00;102164.13;4992189;28;20467;-69
2022/06/28 08:18:20;;;;;;;16.98;2.80;;;;;;;18.67;83.29;102151.25;4993313;28;20068;-69
2022/06/28 08:20:46;;;;;;;12.38;2.70;;;;;;;18.78;82.86;102147.94;4992363;28;20092;-69
2022/06/28 08:23:12;;;;;;;11.90;3.10;;;;;;;18.79;82.41;102147.81;4993226;28;20372;-69
2022/06/28 08:25:38;;;;;;;12.77;2.50;;;;;;;18.95;84.08;102146.94;4993495;28;20039;-70
2022/06/28 08:28:04;;;;;;;24.52;5.47;;;;;;;19.14;78.63;102152.97;4991892;28;20044;-70
2022/06/28 08:30:29;;;;;;;14.98;3.42;;;;;;;19.29;80.23;102158.34;4991698;28;20038;-70
2022/06/28 08:32:55;;;;;;;9.82;2.60;;;;;;;19.39;82.29;102143.41;4992700;28;20033;-70
2022/06/28 08:35:22;;;;;;;21.35;4.90;;;;;;;19.77;76.55;102156.28;4992442;28;20688;-70
2022/06/28 08:37:47;;;;;;;18.95;5.15;;;;;;;20.21;77.30;102158.94;4992359;28;20030;-69
2022/06/28 08:40:13;;;;;;;8.45;2.60;;;;;;;20.25;75.16;102157.78;4974684;28;20117;-70
2022/06/28 08:42:43;;;;;;;10.90;2.60;;;;;;;19.89;75.57;102151.97;4992414;28;20529;-70
2022/06/28 08:45:09;;;;;;;11.50;2.30;;;;;;;21.02;70.49;102147.28;4991701;28;20058;-69
2022/06/28 08:47:38;;;;;;;8.45;2.47;;;;;;;22.08;68.12;102138.97;4992620;28;20030;-69
2022/06/28 08:50:06;;;;;;;8.82;2.53;;;;;;;22.88;63.46;102140.22;4990173;28;20062;-69
2022/06/28 08:52:35;;;;;;;14.25;2.42;;;;;;;23.21;56.54;102133.22;4991876;28;20030;-69
2022/06/28 08:55:01;;;;;;;10.13;2.33;;;;;;;22.94;56.20;102133.50;5006900;28;20468;-69
2022/06/28 08:57:30;;;;;;;9.60;2.50;;;;;;;22.69;58.27;102129.13;4974287;28;20109;-70
2022/06/28 08:59:57;;;;;;;8.65;2.15;;;;;;;23.60;53.51;102129.34;4992760;28;20033;-69
2022/06/28 09:02:22;;;;;;;10.00;2.08;;;;;;;22.82;54.74;102135.31;4992032;28;20054;-69
2022/06/28 09:04:53;;;;;;;9.32;2.13;;;;;;;22.60;54.68;102136.09;4991907;28;20022;-70
2022/06/28 09:07:22;;;;;;;8.07;2.15;;;;;;;22.53;55.71;102130.28;4989298;28;20052;-70
2022/06/28 09:09:48;;;;;;;11.50;2.80;;;;;;;23.05;52.60;102129.97;4991637;28;20557;-70
2022/06/28 09:12:13;;;;;;;9.68;2.20;;;;;;;23.43;52.26;102138.78;4990620;28;20034;-70
2022/06/28 09:14:39;;;;;;;9.57;2.00;;;;;;;23.82;49.83;102133.88;4991635;28;20034;-70
2022/06/28 09:17:28;;;;;;;9.98;2.20;;;;;;;24.19;49.72;102126.31;4992016;28;20022;-70
2022/06/28 09:20:00;;;;;;;12.68;2.72;;;;;;;24.41;48.13;102134.50;4992277;28;20034;-70
2022/06/28 09:22:33;;;;;;;;;;;;;;;24.81;49.21;102129.34;4992868;28;20053;-69
2022/06/28 09:25:00;;;;;;;10.63;2.05;;;;;;;25.13;43.78;102130.25;4992470;28;19910;-69
2022/06/28 09:27:28;;;;;;;9.35;2.35;;;;;;;25.25;45.68;102115.63;5007148;28;20038;-69
2022/06/28 09:29:53;;;;;;;7.03;2.08;;;;;;;25.34;39.49;102117.53;4992233;28;20026;-69
2022/06/28 09:32:31;;;;;;;8.75;2.22;;;;;;;23.69;44.52;102124.03;4991424;28;20022;-69
2022/06/28 09:34:59;;;;;;;9.20;2.13;;;;;;;24.55;43.05;102123.38;4992454;28;20044;-69
2022/06/28 09:37:43;;;;;;;7.47;2.30;;;;;;;25.08;40.98;102122.53;4992014;28;20037;-69
2022/06/28 09:40:10;;;;;;;9.60;2.20;;;;;;;24.69;42.60;102127.66;5007288;28;20023;-69
2022/06/28 09:42:36;;;;;;;8.10;2.60;;;;;;;25.07;40.48;102133.50;4994527;28;20558;-70
2022/06/28 09:45:01;;;;;;;7.95;2.10;;;;;;;25.50;42.86;102116.22;4996229;28;20110;-70
2022/06/28 09:47:27;;;;;;;6.57;2.40;;;;;;;25.42;37.74;102116.03;4996208;28;20018;-70
2022/06/28 09:49:52;;;;;;;7.80;2.20;;;;;;;25.38;38.51;102118.16;4996265;28;20117;-69
2022/06/28 09:52:22;;;;;;;7.68;2.38;;;;;;;25.88;38.21;102119.19;4995114;28;20041;-69
2022/06/28 09:54:54;;;;;;;8.10;2.05;;;;;;;25.75;39.57;102106.72;4996448;28;20034;-70
2022/06/28 09:57:21;;;;;;;7.05;2.10;;;;;;;25.93;38.99;102109.63;4995888;28;20049;-70
2022/06/28 09:59:47;;;;;;;9.35;2.15;;;;;;;25.58;38.12;102108.25;4996190;28;20030;-69
2022/06/28 10:02:16;;;;;;;7.25;2.10;;;;;;;25.57;39.43;102108.41;4995957;28;20050;-70
2022/06/28 10:04:41;;;;;;;7.82;2.00;;;;;;;26.30;41.01;102105.44;4996111;28;20105;-70
2022/06/28 10:07:10;;;;;;;8.48;2.20;;;;;;;26.38;37.94;102107.44;4995588;28;20673;-70
2022/06/28 10:09:35;;;;;;;7.05;2.10;;;;;;;26.22;39.57;102103.44;4995857;28;20058;-70
2022/06/28 10:15:04;;;;;;;11.10;2.35;;;;;;;26.37;36.95;102105.72;4996274;28;20049;-69
2022/06/28 10:17:51;;;;;;;8.95;2.28;;;;;;;26.26;35.64;102102.16;4994635;28;20061;-70
2022/06/28 10:20:43;;;;;;;8.50;2.30;;;;;;;25.90;38.31;102100.94;5011078;28;20066;-69
2022/06/28 10:23:37;;;;;;;6.68;1.80;;;;;;;26.56;36.15;102104.88;5006894;28;20065;-69
2022/06/28 10:26:05;;;;;;;6.78;2.00;;;;;;;26.97;36.04;102097.41;4995426;28;20026;-69
2022/06/28 10:28:59;;;;;;;7.90;1.70;;;;;;;26.35;34.92;102099.59;4995480;28;20038;-70
2022/06/28 10:31:25;;;;;;;7.95;2.22;;;;;;;26.13;34.88;102091.56;4988127;28;20085;-69
2022/06/28 10:33:52;;;;;;;8.40;2.15;;;;;;;26.54;34.42;102086.00;4995573;28;20054;-69
2022/06/28 10:36:20;;;;;;;5.07;1.50;;;;;;;26.61;32.80;102089.88;4993966;28;20037;-70
2022/06/28 10:39:01;;;;;;;8.45;1.92;;;;;;;26.80;33.28;102090.88;4995478;28;20033;-69
2022/06/28 10:41:47;;;;;;;5.53;2.08;;;;;;;26.32;36.59;102079.88;4995413;28;20031;-70
2022/06/28 10:44:19;;;;;;;8.50;2.22;;;;;;;26.65;33.38;102080.44;4995512;28;20027;-69
2022/06/28 10:47:03;;;;;;;5.40;1.90;;;;;;;27.28;34.16;102078.16;4995332;28;20030;-70
2022/06/28 10:49:46;;;;;;;8.73;1.98;;;;;;;26.97;32.69;102073.81;4995205;28;20482;-69
2022/06/28 10:52:15;;;;;;;8.05;2.00;;;;;;;27.06;34.82;102080.25;5009758;28;20109;-69
2022/06/28 10:54:52;;;;;;;4.30;1.63;;;;;;;27.20;33.01;102078.91;4993745;28;20470;-69
2022/06/28 10:57:30;;;;;;;7.90;1.90;;;;;;;27.10;32.85;102067.22;5010147;28;20037;-69
2022/06/28 10:59:58;;;;;;;6.00;1.85;;;;;;;27.13;33.70;102066.91;5010026;28;20030;-70
2022/06/28 11:02:44;;;;;;;6.45;1.70;;;;;;;27.40;31.28;102074.25;4994746;28;20062;-69
2022/06/28 11:05:09;;;;;;;6.65;1.95;;;;;;;27.35;33.89;102075.69;4994829;28;20042;-69
2022/06/28 11:07:37;;;;;;;5.95;2.30;;;;;;;27.77;31.33;102057.03;4994221;28;20030;-69
2022/06/28 11:10:11;;;;;;;6.70;1.80;;;;;;;27.67;31.71;102058.09;4994305;28;20022;-70
2022/06/28 11:12:41;;;;;;;6.20;2.05;;;;;;;27.10;32.64;102048.19;4994786;28;20026;-69
2022/06/28 11:15:10;;;;;;;4.72;1.98;;;;;;;27.21;32.67;102058.00;5009887;28;20057;-69
2022/06/28 11:17:36;;;;;;;4.95;1.75;;;;;;;27.03;32.04;102050.63;5009407;28;20486;-70
2022/06/28 11:20:07;;;;;;;6.65;2.00;;;;;;;27.34;32.74;102055.81;4994457;28;20092;-70
2022/06/28 11:22:37;;;;;;;5.75;1.90;;;;;;;26.94;30.93;102060.50;4994668;28;20037;-69
2022/06/28 11:25:05;;;;;;;4.13;1.50;;;;;;;26.34;32.97;102052.56;4994585;28;20026;-69
2022/06/28 11:27:32;;;;;;;8.98;2.20;;;;;;;26.56;34.49;102040.56;4993231;28;20121;-69
2022/06/28 11:30:00;;;;;;;6.75;1.70;;;;;;;26.73;34.30;102041.69;4994291;28;20109;-70